Terminal Aerodrome Forecast
Issued by NWS Wilmington, OH

Current Version | Previous Version | Text Only | Print | Product List | Glossary On
Versions: 1 2 3 4 5 6 7 8 9 10 11 12 13 14 15 16 17 18 19 20 21 22 23 24 25 26 27 28 29 30 31
000 FTUS41 KILN 011120 TAFDAY TAF KDAY 011120Z 0112/0212 12006KT 6SM BR VCSH SCT040 SCT090 BKN180 FM011400 19007KT P6SM VCSH SCT015 BKN250 FM011800 20008KT P6SM -SHRA VCTS BKN035CB FM020100 18004KT P6SM SCT025 BKN250=

USA.gov is the U.S. government's official web portal to all federal, state and local government web resources and services.